sensor_id;sensor_type;location;lat;lon;timestamp;pressure;altitude;pressure_sealevel;temperature;humidity
59588;BME280;45412;54.472;18.464;2023-05-23T00:02:20;99885.95;;;10.26;78.42
59588;BME280;45412;54.472;18.464;2023-05-23T00:05:09;99884.27;;;10.22;78.48
59588;BME280;45412;54.472;18.464;2023-05-23T00:08:00;99885.27;;;10.18;79.03
59588;BME280;45412;54.472;18.464;2023-05-23T00:10:48;99885.70;;;10.15;78.80
59588;BME280;45412;54.472;18.464;2023-05-23T00:13:36;99882.74;;;10.12;78.89
59588;BME280;45412;54.472;18.464;2023-05-23T00:16:27;99880.77;;;10.11;79.25
59588;BME280;45412;54.472;18.464;2023-05-23T00:19:15;99884.32;;;10.11;79.17
59588;BME280;45412;54.472;18.464;2023-05-23T00:22:04;99881.47;;;10.11;79.61
59588;BME280;45412;54.472;18.464;2023-05-23T00:24:52;99877.40;;;10.11;79.44
59588;BME280;45412;54.472;18.464;2023-05-23T00:27:40;99874.64;;;10.10;79.60
59588;BME280;45412;54.472;18.464;2023-05-23T00:30:32;99873.64;;;10.07;79.40
59588;BME280;45412;54.472;18.464;2023-05-23T00:33:21;99874.57;;;10.03;79.62
59588;BME280;45412;54.472;18.464;2023-05-23T00:36:10;99866.45;;;10.01;80.33
59588;BME280;45412;54.472;18.464;2023-05-23T00:38:59;99863.38;;;9.97;80.15
59588;BME280;45412;54.472;18.464;2023-05-23T00:41:50;99858.13;;;9.94;80.04
59588;BME280;45412;54.472;18.464;2023-05-23T00:44:39;99856.19;;;9.92;79.80
59588;BME280;45412;54.472;18.464;2023-05-23T00:47:28;99859.37;;;9.89;80.02
59588;BME280;45412;54.472;18.464;2023-05-23T00:50:16;99851.83;;;9.88;80.16
59588;BME280;45412;54.472;18.464;2023-05-23T00:53:04;99850.63;;;9.88;80.62
59588;BME280;45412;54.472;18.464;2023-05-23T00:55:53;99848.36;;;9.87;81.01
59588;BME280;45412;54.472;18.464;2023-05-23T00:58:41;99847.04;;;9.86;81.09
59588;BME280;45412;54.472;18.464;2023-05-23T01:01:30;99844.92;;;9.84;81.06
59588;BME280;45412;54.472;18.464;2023-05-23T01:04:18;99843.80;;;9.80;80.74
59588;BME280;45412;54.472;18.464;2023-05-23T01:07:13;99847.52;;;9.78;80.71
59588;BME280;45412;54.472;18.464;2023-05-23T01:10:03;99845.05;;;9.75;80.96
59588;BME280;45412;54.472;18.464;2023-05-23T01:29:23;99829.48;;;9.68;81.66
59588;BME280;45412;54.472;18.464;2023-05-23T01:32:14;99828.20;;;9.64;82.53
59588;BME280;45412;54.472;18.464;2023-05-23T01:35:04;99827.73;;;9.61;82.70
59588;BME280;45412;54.472;18.464;2023-05-23T01:37:53;99822.79;;;9.59;82.76
59588;BME280;45412;54.472;18.464;2023-05-23T01:40:42;99823.58;;;9.58;82.80
59588;BME280;45412;54.472;18.464;2023-05-23T01:43:31;99824.92;;;9.56;83.21
59588;BME280;45412;54.472;18.464;2023-05-23T01:46:20;99825.16;;;9.55;83.30
59588;BME280;45412;54.472;18.464;2023-05-23T01:49:12;99825.34;;;9.55;83.41
59588;BME280;45412;54.472;18.464;2023-05-23T01:52:02;99825.39;;;9.55;83.54
59588;BME280;45412;54.472;18.464;2023-05-23T01:54:51;99820.09;;;9.54;83.77
59588;BME280;45412;54.472;18.464;2023-05-23T01:57:40;99817.51;;;9.53;83.49
59588;BME280;45412;54.472;18.464;2023-05-23T02:00:28;99816.15;;;9.50;83.89
59588;BME280;45412;54.472;18.464;2023-05-23T02:03:17;99814.38;;;9.48;83.68
59588;BME280;45412;54.472;18.464;2023-05-23T02:06:06;99817.35;;;9.46;83.88
59588;BME280;45412;54.472;18.464;2023-05-23T02:08:56;99814.77;;;9.45;84.01
59588;BME280;45412;54.472;18.464;2023-05-23T02:11:44;99814.41;;;9.45;84.39
59588;BME280;45412;54.472;18.464;2023-05-23T02:14:32;99814.42;;;9.47;84.69
59588;BME280;45412;54.472;18.464;2023-05-23T02:17:21;99814.36;;;9.48;85.18
59588;BME280;45412;54.472;18.464;2023-05-23T02:20:10;99812.09;;;9.48;85.56
59588;BME280;45412;54.472;18.464;2023-05-23T02:22:59;99811.44;;;9.47;85.79
59588;BME280;45412;54.472;18.464;2023-05-23T02:25:47;99808.41;;;9.47;85.73
59588;BME280;45412;54.472;18.464;2023-05-23T02:28:35;99806.02;;;9.46;86.00
59588;BME280;45412;54.472;18.464;2023-05-23T02:31:23;99799.98;;;9.44;85.95
59588;BME280;45412;54.472;18.464;2023-05-23T02:34:12;99796.70;;;9.43;86.06
59588;BME280;45412;54.472;18.464;2023-05-23T02:37:00;99792.63;;;9.43;86.26
59588;BME280;45412;54.472;18.464;2023-05-23T02:39:48;99792.07;;;9.46;86.62
59588;BME280;45412;54.472;18.464;2023-05-23T02:42:37;99792.02;;;9.48;86.22
59588;BME280;45412;54.472;18.464;2023-05-23T02:45:24;99791.13;;;9.51;86.26
59588;BME280;45412;54.472;18.464;2023-05-23T02:48:13;99789.39;;;9.52;86.47
59588;BME280;45412;54.472;18.464;2023-05-23T02:51:01;99791.87;;;9.55;86.05
59588;BME280;45412;54.472;18.464;2023-05-23T02:53:49;99790.17;;;9.57;86.25
59588;BME280;45412;54.472;18.464;2023-05-23T02:56:37;99787.77;;;9.58;86.44
59588;BME280;45412;54.472;18.464;2023-05-23T02:59:25;99789.70;;;9.60;86.29
59588;BME280;45412;54.472;18.464;2023-05-23T03:02:14;99785.64;;;9.63;86.32
59588;BME280;45412;54.472;18.464;2023-05-23T03:05:04;99780.47;;;9.67;86.61
59588;BME280;45412;54.472;18.464;2023-05-23T03:07:53;99763.40;;;9.64;86.84
59588;BME280;45412;54.472;18.464;2023-05-23T03:10:43;99780.27;;;9.81;86.60
59588;BME280;45412;54.472;18.464;2023-05-23T03:13:31;99778.61;;;9.89;86.52
59588;BME280;45412;54.472;18.464;2023-05-23T03:16:21;99776.21;;;9.95;86.27
59588;BME280;45412;54.472;18.464;2023-05-23T03:19:11;99779.27;;;10.03;85.88
59588;BME280;45412;54.472;18.464;2023-05-23T03:22:00;99784.42;;;10.16;85.68
59588;BME280;45412;54.472;18.464;2023-05-23T03:24:48;99789.02;;;10.39;85.60
59588;BME280;45412;54.472;18.464;2023-05-23T03:27:36;99786.52;;;10.63;84.88
59588;BME280;45412;54.472;18.464;2023-05-23T03:30:25;99782.13;;;10.82;83.71
59588;BME280;45412;54.472;18.464;2023-05-23T03:33:14;99778.21;;;11.01;82.95
59588;BME280;45412;54.472;18.464;2023-05-23T03:36:03;99776.92;;;11.19;82.62
59588;BME280;45412;54.472;18.464;2023-05-23T03:38:52;99766.95;;;11.29;81.98
59588;BME280;45412;54.472;18.464;2023-05-23T03:41:40;99771.98;;;11.48;81.84
59588;BME280;45412;54.472;18.464;2023-05-23T03:44:29;99761.87;;;11.66;80.80
59588;BME280;45412;54.472;18.464;2023-05-23T03:47:18;99762.39;;;11.89;79.84
59588;BME280;45412;54.472;18.464;2023-05-23T03:50:07;99761.63;;;12.14;78.56
59588;BME280;45412;54.472;18.464;2023-05-23T03:52:56;99755.79;;;12.40;77.85
59588;BME280;45412;54.472;18.464;2023-05-23T03:55:45;99751.02;;;12.65;76.57
59588;BME280;45412;54.472;18.464;2023-05-23T03:58:33;99753.30;;;12.88;75.64
59588;BME280;45412;54.472;18.464;2023-05-23T04:01:26;99743.34;;;13.11;74.28
59588;BME280;45412;54.472;18.464;2023-05-23T04:04:14;99739.87;;;13.31;73.01
59588;BME280;45412;54.472;18.464;2023-05-23T04:07:05;99742.08;;;13.50;72.26
59588;BME280;45412;54.472;18.464;2023-05-23T04:10:00;99737.98;;;13.67;71.30
59588;BME280;45412;54.472;18.464;2023-05-23T04:12:49;99740.25;;;13.81;71.09
59588;BME280;45412;54.472;18.464;2023-05-23T04:15:38;99737.77;;;13.93;69.81
59588;BME280;45412;54.472;18.464;2023-05-23T04:18:31;99737.45;;;14.07;69.18
59588;BME280;45412;54.472;18.464;2023-05-23T04:21:27;99731.67;;;14.21;68.17
59588;BME280;45412;54.472;18.464;2023-05-23T04:24:24;99736.45;;;14.36;67.20
59588;BME280;45412;54.472;18.464;2023-05-23T04:27:13;99734.91;;;14.50;66.21
59588;BME280;45412;54.472;18.464;2023-05-23T04:30:01;99734.69;;;14.65;65.91
59588;BME280;45412;54.472;18.464;2023-05-23T04:32:51;99731.98;;;14.80;65.20
59588;BME280;45412;54.472;18.464;2023-05-23T04:35:41;99727.33;;;14.96;64.15
59588;BME280;45412;54.472;18.464;2023-05-23T04:38:31;99724.58;;;15.14;63.68
59588;BME280;45412;54.472;18.464;2023-05-23T04:41:21;99729.88;;;15.39;62.83
59588;BME280;45412;54.472;18.464;2023-05-23T04:44:33;99725.35;;;15.80;61.42
59588;BME280;45412;54.472;18.464;2023-05-23T04:47:34;99723.66;;;16.28;59.60
59588;BME280;45412;54.472;18.464;2023-05-23T04:50:28;99721.45;;;16.94;57.89
59588;BME280;45412;54.472;18.464;2023-05-23T04:53:21;99715.31;;;17.75;56.27
59588;BME280;45412;54.472;18.464;2023-05-23T04:56:11;99720.25;;;18.50;53.11
59588;BME280;45412;54.472;18.464;2023-05-23T04:58:59;99718.00;;;19.04;51.29
59588;BME280;45412;54.472;18.464;2023-05-23T05:01:48;99714.60;;;19.42;50.31
59588;BME280;45412;54.472;18.464;2023-05-23T05:04:37;99710.17;;;19.69;49.33
59588;BME280;45412;54.472;18.464;2023-05-23T05:07:26;99704.91;;;20.24;48.57
59588;BME280;45412;54.472;18.464;2023-05-23T05:10:16;99704.69;;;20.90;46.49
59588;BME280;45412;54.472;18.464;2023-05-23T05:13:05;99701.89;;;21.42;44.75
59588;BME280;45412;54.472;18.464;2023-05-23T05:16:03;99706.08;;;22.04;43.25
59588;BME280;45412;54.472;18.464;2023-05-23T05:18:51;99707.17;;;22.86;41.44
59588;BME280;45412;54.472;18.464;2023-05-23T05:21:40;99698.08;;;23.59;39.27
59588;BME280;45412;54.472;18.464;2023-05-23T05:24:28;99695.61;;;24.33;38.35
59588;BME280;45412;54.472;18.464;2023-05-23T05:27:16;99696.46;;;24.82;36.75
59588;BME280;45412;54.472;18.464;2023-05-23T05:30:07;99695.48;;;25.08;36.41
59588;BME280;45412;54.472;18.464;2023-05-23T05:33:05;99697.10;;;25.05;35.51
59588;BME280;45412;54.472;18.464;2023-05-23T05:35:54;99694.16;;;24.97;35.66
59588;BME280;45412;54.472;18.464;2023-05-23T05:38:43;99695.27;;;25.16;35.56
59588;BME280;45412;54.472;18.464;2023-05-23T05:41:32;99688.55;;;25.41;34.75
59588;BME280;45412;54.472;18.464;2023-05-23T05:44:20;99684.67;;;25.86;33.84
59588;BME280;45412;54.472;18.464;2023-05-23T05:47:08;99686.61;;;26.32;33.33
59588;BME280;45412;54.472;18.464;2023-05-23T05:49:57;99683.80;;;26.69;32.73
59588;BME280;45412;54.472;18.464;2023-05-23T05:52:46;99686.20;;;26.59;32.69
59588;BME280;45412;54.472;18.464;2023-05-23T05:55:34;99685.77;;;27.21;32.03
59588;BME280;45412;54.472;18.464;2023-05-23T05:58:23;99685.99;;;28.04;30.77
59588;BME280;45412;54.472;18.464;2023-05-23T06:01:23;99684.19;;;28.87;29.64
59588;BME280;45412;54.472;18.464;2023-05-23T06:04:12;99680.05;;;29.58;28.19
59588;BME280;45412;54.472;18.464;2023-05-23T06:07:01;99677.56;;;30.01;27.31
59588;BME280;45412;54.472;18.464;2023-05-23T06:09:51;99676.86;;;30.07;26.92
59588;BME280;45412;54.472;18.464;2023-05-23T06:12:39;99672.70;;;30.19;27.22
59588;BME280;45412;54.472;18.464;2023-05-23T06:15:28;99673.91;;;30.47;26.54
59588;BME280;45412;54.472;18.464;2023-05-23T06:18:16;99673.19;;;30.61;26.36
59588;BME280;45412;54.472;18.464;2023-05-23T06:21:04;99672.63;;;30.89;26.17
59588;BME280;45412;54.472;18.464;2023-05-23T06:23:54;99671.75;;;31.28;26.18
59588;BME280;45412;54.472;18.464;2023-05-23T06:26:44;99667.30;;;31.72;25.40
59588;BME280;45412;54.472;18.464;2023-05-23T06:29:34;99660.13;;;32.23;24.53
59588;BME280;45412;54.472;18.464;2023-05-23T06:32:25;99658.52;;;32.64;23.77
59588;BME280;45412;54.472;18.464;2023-05-23T06:35:13;99656.85;;;33.03;23.11
59588;BME280;45412;54.472;18.464;2023-05-23T06:38:01;99655.79;;;33.39;22.55
59588;BME280;45412;54.472;18.464;2023-05-23T06:40:50;99651.39;;;33.78;22.38
59588;BME280;45412;54.472;18.464;2023-05-23T06:43:38;99651.02;;;34.15;21.56
59588;BME280;45412;54.472;18.464;2023-05-23T06:46:34;99647.47;;;34.37;20.78
59588;BME280;45412;54.472;18.464;2023-05-23T06:49:26;99645.86;;;34.28;20.18
59588;BME280;45412;54.472;18.464;2023-05-23T06:52:15;99644.17;;;33.97;20.21
59588;BME280;45412;54.472;18.464;2023-05-23T06:55:04;99643.62;;;34.15;20.37
59588;BME280;45412;54.472;18.464;2023-05-23T06:57:53;99641.64;;;34.68;19.73
59588;BME280;45412;54.472;18.464;2023-05-23T07:00:41;99641.70;;;34.96;18.89
59588;BME280;45412;54.472;18.464;2023-05-23T07:03:35;99643.83;;;34.95;18.24
59588;BME280;45412;54.472;18.464;2023-05-23T07:06:26;99640.80;;;34.67;18.30
59588;BME280;45412;54.472;18.464;2023-05-23T07:09:17;99641.47;;;34.45;18.65
59588;BME280;45412;54.472;18.464;2023-05-23T07:12:05;99641.54;;;33.73;19.13
59588;BME280;45412;54.472;18.464;2023-05-23T07:14:55;99637.57;;;33.01;19.65
59588;BME280;45412;54.472;18.464;2023-05-23T07:17:45;99636.00;;;32.58;19.90
59588;BME280;45412;54.472;18.464;2023-05-23T07:20:34;99635.55;;;32.62;20.24
59588;BME280;45412;54.472;18.464;2023-05-23T07:23:33;99632.75;;;32.45;19.95
59588;BME280;45412;54.472;18.464;2023-05-23T07:26:22;99634.95;;;31.57;20.97
59588;BME280;45412;54.472;18.464;2023-05-23T07:29:14;99632.85;;;30.82;21.42
59588;BME280;45412;54.472;18.464;2023-05-23T07:32:04;99627.56;;;30.33;22.68
59588;BME280;45412;54.472;18.464;2023-05-23T07:34:52;99628.73;;;30.52;22.88
59588;BME280;45412;54.472;18.464;2023-05-23T07:37:41;99625.16;;;31.13;22.75
59588;BME280;45412;54.472;18.464;2023-05-23T07:40:30;99619.91;;;31.66;22.46
59588;BME280;45412;54.472;18.464;2023-05-23T07:43:18;99613.61;;;32.28;21.92
59588;BME280;45412;54.472;18.464;2023-05-23T07:46:06;99618.54;;;32.77;21.24
59588;BME280;45412;54.472;18.464;2023-05-23T07:48:55;99617.41;;;32.93;20.90
59588;BME280;45412;54.472;18.464;2023-05-23T07:51:44;99615.08;;;32.76;20.63
59588;BME280;45412;54.472;18.464;2023-05-23T07:54:32;99613.36;;;32.54;21.61
59588;BME280;45412;54.472;18.464;2023-05-23T07:57:21;99616.11;;;32.38;20.72
59588;BME280;45412;54.472;18.464;2023-05-23T08:00:12;99615.58;;;32.14;21.16
59588;BME280;45412;54.472;18.464;2023-05-23T08:03:03;99610.48;;;31.74;21.27
59588;BME280;45412;54.472;18.464;2023-05-23T08:05:56;99608.20;;;31.80;21.55
59588;BME280;45412;54.472;18.464;2023-05-23T08:08:45;99605.14;;;31.87;21.09
59588;BME280;45412;54.472;18.464;2023-05-23T08:11:34;99604.23;;;31.79;21.10
59588;BME280;45412;54.472;18.464;2023-05-23T08:14:23;99607.54;;;31.25;22.19
59588;BME280;45412;54.472;18.464;2023-05-23T08:17:36;99605.27;;;31.03;22.40
59588;BME280;45412;54.472;18.464;2023-05-23T08:20:26;99599.82;;;30.62;22.40
59588;BME280;45412;54.472;18.464;2023-05-23T08:23:19;99604.05;;;30.19;23.39
59588;BME280;45412;54.472;18.464;2023-05-23T08:26:07;99602.77;;;30.22;23.50
59588;BME280;45412;54.472;18.464;2023-05-23T08:28:57;99599.09;;;30.35;23.59
59588;BME280;45412;54.472;18.464;2023-05-23T08:31:46;99599.73;;;30.50;24.23
59588;BME280;45412;54.472;18.464;2023-05-23T08:34:35;99603.19;;;30.95;23.61
59588;BME280;45412;54.472;18.464;2023-05-23T08:37:24;99604.73;;;30.96;23.41
59588;BME280;45412;54.472;18.464;2023-05-23T08:40:21;99601.30;;;30.83;23.80
59588;BME280;45412;54.472;18.464;2023-05-23T08:43:24;99599.55;;;30.63;23.64
59588;BME280;45412;54.472;18.464;2023-05-23T08:46:13;99599.98;;;30.36;23.99
59588;BME280;45412;54.472;18.464;2023-05-23T08:49:02;99600.36;;;29.56;24.32
59588;BME280;45412;54.472;18.464;2023-05-23T08:51:53;99598.73;;;29.07;24.36
59588;BME280;45412;54.472;18.464;2023-05-23T08:54:45;99603.92;;;28.86;24.45
59588;BME280;45412;54.472;18.464;2023-05-23T08:57:37;99602.12;;;28.94;24.30
59588;BME280;45412;54.472;18.464;2023-05-23T09:00:41;99598.85;;;29.44;23.98
59588;BME280;45412;54.472;18.464;2023-05-23T09:03:31;99600.55;;;29.86;22.96
59588;BME280;45412;54.472;18.464;2023-05-23T09:06:26;99601.06;;;30.04;22.18
59588;BME280;45412;54.472;18.464;2023-05-23T09:09:15;99604.94;;;30.64;21.72
59588;BME280;45412;54.472;18.464;2023-05-23T09:12:05;99600.80;;;30.93;21.09
59588;BME280;45412;54.472;18.464;2023-05-23T09:14:54;99602.58;;;31.12;21.18
59588;BME280;45412;54.472;18.464;2023-05-23T09:17:45;99602.61;;;31.67;20.54
59588;BME280;45412;54.472;18.464;2023-05-23T09:20:39;99597.52;;;31.76;20.22
59588;BME280;45412;54.472;18.464;2023-05-23T09:23:34;99599.35;;;32.18;20.23
59588;BME280;45412;54.472;18.464;2023-05-23T09:26:23;99602.77;;;32.77;19.51
59588;BME280;45412;54.472;18.464;2023-05-23T09:29:12;99595.23;;;33.06;19.00
59588;BME280;45412;54.472;18.464;2023-05-23T09:35:03;99595.23;;;32.30;19.74
59588;BME280;45412;54.472;18.464;2023-05-23T09:37:53;99594.47;;;31.52;20.65
59588;BME280;45412;54.472;18.464;2023-05-23T09:40:44;99596.58;;;31.19;21.38
59588;BME280;45412;54.472;18.464;2023-05-23T09:43:33;99587.11;;;31.20;21.02
59588;BME280;45412;54.472;18.464;2023-05-23T09:46:27;99596.81;;;31.15;21.18
59588;BME280;45412;54.472;18.464;2023-05-23T09:49:18;99589.67;;;31.68;20.67
59588;BME280;45412;54.472;18.464;2023-05-23T09:52:09;99589.52;;;32.16;20.48
59588;BME280;45412;54.472;18.464;2023-05-23T09:54:59;99576.95;;;32.38;19.73
59588;BME280;45412;54.472;18.464;2023-05-23T09:57:51;99585.45;;;32.47;19.42
59588;BME280;45412;54.472;18.464;2023-05-23T10:00:45;99588.85;;;32.20;19.76
59588;BME280;45412;54.472;18.464;2023-05-23T10:03:55;99588.38;;;31.98;19.79
59588;BME280;45412;54.472;18.464;2023-05-23T10:06:56;99588.73;;;32.20;19.61
59588;BME280;45412;54.472;18.464;2023-05-23T10:10:08;99586.33;;;32.45;19.36
59588;BME280;45412;54.472;18.464;2023-05-23T10:13:04;99584.16;;;32.20;19.31
59588;BME280;45412;54.472;18.464;2023-05-23T10:16:05;99582.86;;;32.20;19.57
59588;BME280;45412;54.472;18.464;2023-05-23T10:19:02;99580.30;;;31.65;19.87
59588;BME280;45412;54.472;18.464;2023-05-23T10:21:58;99580.27;;;30.70;21.05
59588;BME280;45412;54.472;18.464;2023-05-23T10:24:47;99577.16;;;30.71;20.74
59588;BME280;45412;54.472;18.464;2023-05-23T10:27:38;99580.92;;;30.78;20.76
59588;BME280;45412;54.472;18.464;2023-05-23T10:30:27;99571.70;;;31.39;20.20
59588;BME280;45412;54.472;18.464;2023-05-23T10:33:16;99570.80;;;31.88;19.73
59588;BME280;45412;54.472;18.464;2023-05-23T10:36:23;99577.02;;;32.12;18.99
59588;BME280;45412;54.472;18.464;2023-05-23T10:39:25;99573.44;;;31.50;19.73
59588;BME280;45412;54.472;18.464;2023-05-23T10:42:36;99571.82;;;31.45;19.68
59588;BME280;45412;54.472;18.464;2023-05-23T10:45:28;99570.67;;;32.34;20.02
59588;BME280;45412;54.472;18.464;2023-05-23T10:48:31;99571.02;;;33.26;17.95
59588;BME280;45412;54.472;18.464;2023-05-23T10:51:21;99571.14;;;32.70;17.60
59588;BME280;45412;54.472;18.464;2023-05-23T10:54:11;99567.45;;;32.23;18.68
59588;BME280;45412;54.472;18.464;2023-05-23T10:57:04;99572.95;;;32.36;18.27
59588;BME280;45412;54.472;18.464;2023-05-23T10:59:53;99567.11;;;32.19;18.41
59588;BME280;45412;54.472;18.464;2023-05-23T11:02:53;99570.71;;;31.44;18.70
59588;BME280;45412;54.472;18.464;2023-05-23T11:05:51;99567.61;;;30.12;20.00
59588;BME280;45412;54.472;18.464;2023-05-23T11:08:40;99562.34;;;29.58;20.96
59588;BME280;45412;54.472;18.464;2023-05-23T11:12:02;99568.20;;;29.31;21.61
59588;BME280;45412;54.472;18.464;2023-05-23T11:14:54;99567.42;;;28.93;22.31
59588;BME280;45412;54.472;18.464;2023-05-23T11:17:57;99571.40;;;28.13;22.04
59588;BME280;45412;54.472;18.464;2023-05-23T11:20:49;99563.79;;;27.55;23.40
59588;BME280;45412;54.472;18.464;2023-05-23T11:23:42;99571.95;;;26.92;24.66
59588;BME280;45412;54.472;18.464;2023-05-23T11:26:31;99564.31;;;26.23;25.74
59588;BME280;45412;54.472;18.464;2023-05-23T11:29:21;99565.67;;;25.90;26.47
59588;BME280;45412;54.472;18.464;2023-05-23T11:32:11;99571.04;;;25.50;26.50
59588;BME280;45412;54.472;18.464;2023-05-23T11:35:10;99565.54;;;25.34;25.96
59588;BME280;45412;54.472;18.464;2023-05-23T11:37:58;99559.17;;;25.54;25.69
59588;BME280;45412;54.472;18.464;2023-05-23T11:40:47;99566.86;;;25.59;26.55
59588;BME280;45412;54.472;18.464;2023-05-23T11:43:35;99563.43;;;25.49;26.63
59588;BME280;45412;54.472;18.464;2023-05-23T11:46:24;99560.06;;;25.37;27.18
59588;BME280;45412;54.472;18.464;2023-05-23T11:49:13;99562.27;;;25.42;27.19
59588;BME280;45412;54.472;18.464;2023-05-23T11:52:04;99565.20;;;25.48;26.42
59588;BME280;45412;54.472;18.464;2023-05-23T11:54:53;99565.08;;;25.59;26.58
59588;BME280;45412;54.472;18.464;2023-05-23T11:57:43;99558.20;;;25.55;26.49
59588;BME280;45412;54.472;18.464;2023-05-23T12:00:34;99556.27;;;25.27;26.56
59588;BME280;45412;54.472;18.464;2023-05-23T12:03:22;99561.33;;;24.78;27.87
59588;BME280;45412;54.472;18.464;2023-05-23T12:06:20;99564.91;;;24.42;28.31
59588;BME280;45412;54.472;18.464;2023-05-23T12:09:11;99565.02;;;24.09;28.98
59588;BME280;45412;54.472;18.464;2023-05-23T12:12:00;99562.47;;;23.84;29.46
59588;BME280;45412;54.472;18.464;2023-05-23T12:14:54;99552.98;;;23.66;29.90
59588;BME280;45412;54.472;18.464;2023-05-23T12:17:44;99554.35;;;23.61;30.20
59588;BME280;45412;54.472;18.464;2023-05-23T12:20:34;99559.13;;;23.61;30.18
59588;BME280;45412;54.472;18.464;2023-05-23T12:23:24;99554.21;;;23.70;30.27
59588;BME280;45412;54.472;18.464;2023-05-23T12:26:14;99557.02;;;23.78;30.20
59588;BME280;45412;54.472;18.464;2023-05-23T12:29:03;99550.52;;;23.83;29.95
59588;BME280;45412;54.472;18.464;2023-05-23T12:31:51;99541.66;;;23.91;30.05
59588;BME280;45412;54.472;18.464;2023-05-23T12:34:41;99539.62;;;23.88;29.60
59588;BME280;45412;54.472;18.464;2023-05-23T12:37:30;99538.08;;;23.77;29.80
59588;BME280;45412;54.472;18.464;2023-05-23T12:40:19;99537.43;;;23.83;30.27
59588;BME280;45412;54.472;18.464;2023-05-23T12:43:08;99542.41;;;23.99;30.28
59588;BME280;45412;54.472;18.464;2023-05-23T12:45:58;99541.33;;;24.25;29.83
59588;BME280;45412;54.472;18.464;2023-05-23T12:48:46;99537.73;;;24.44;30.01
59588;BME280;45412;54.472;18.464;2023-05-23T12:51:34;99540.96;;;24.70;29.81
59588;BME280;45412;54.472;18.464;2023-05-23T12:54:22;99538.34;;;24.95;29.06
59588;BME280;45412;54.472;18.464;2023-05-23T12:57:11;99539.41;;;24.92;28.00
59588;BME280;45412;54.472;18.464;2023-05-23T12:59:59;99536.98;;;24.68;28.28
59588;BME280;45412;54.472;18.464;2023-05-23T13:02:47;99536.55;;;24.66;28.35
59588;BME280;45412;54.472;18.464;2023-05-23T13:05:37;99531.17;;;24.73;28.20
59588;BME280;45412;54.472;18.464;2023-05-23T13:08:26;99535.13;;;24.74;27.83
59588;BME280;45412;54.472;18.464;2023-05-23T13:11:15;99523.88;;;24.74;27.56
59588;BME280;45412;54.472;18.464;2023-05-23T13:14:03;99522.79;;;24.81;27.78
59588;BME280;45412;54.472;18.464;2023-05-23T13:16:51;99525.67;;;24.81;27.80
59588;BME280;45412;54.472;18.464;2023-05-23T13:19:39;99535.59;;;24.74;27.91
59588;BME280;45412;54.472;18.464;2023-05-23T13:22:29;99534.38;;;24.51;28.27
59588;BME280;45412;54.472;18.464;2023-05-23T13:25:18;99526.92;;;24.36;28.63
59588;BME280;45412;54.472;18.464;2023-05-23T13:28:06;99534.49;;;24.31;28.45
59588;BME280;45412;54.472;18.464;2023-05-23T13:30:54;99530.39;;;24.37;28.73
59588;BME280;45412;54.472;18.464;2023-05-23T13:33:42;99527.93;;;24.39;28.72
59588;BME280;45412;54.472;18.464;2023-05-23T13:36:31;99531.58;;;24.60;28.76
59588;BME280;45412;54.472;18.464;2023-05-23T13:39:20;99531.35;;;24.67;28.51
59588;BME280;45412;54.472;18.464;2023-05-23T13:42:10;99525.88;;;24.78;28.63
59588;BME280;45412;54.472;18.464;2023-05-23T13:44:58;99523.77;;;24.83;27.70
59588;BME280;45412;54.472;18.464;2023-05-23T13:47:47;99524.87;;;24.85;30.39
59588;BME280;45412;54.472;18.464;2023-05-23T13:50:35;99517.48;;;24.80;33.04
59588;BME280;45412;54.472;18.464;2023-05-23T13:53:23;99520.62;;;24.68;33.44
59588;BME280;45412;54.472;18.464;2023-05-23T13:56:14;99518.41;;;24.73;33.44
59588;BME280;45412;54.472;18.464;2023-05-23T13:59:02;99517.83;;;24.80;33.67
59588;BME280;45412;54.472;18.464;2023-05-23T14:01:50;99514.98;;;24.69;34.05
59588;BME280;45412;54.472;18.464;2023-05-23T14:04:39;99519.09;;;24.68;34.00
59588;BME280;45412;54.472;18.464;2023-05-23T14:07:30;99513.77;;;24.72;33.51
59588;BME280;45412;54.472;18.464;2023-05-23T14:10:20;99512.55;;;24.75;33.38
59588;BME280;45412;54.472;18.464;2023-05-23T14:13:08;99514.43;;;24.76;33.41
59588;BME280;45412;54.472;18.464;2023-05-23T14:15:56;99512.57;;;24.69;33.52
59588;BME280;45412;54.472;18.464;2023-05-23T14:18:45;99510.94;;;24.66;33.66
59588;BME280;45412;54.472;18.464;2023-05-23T14:21:34;99511.77;;;24.69;33.98
59588;BME280;45412;54.472;18.464;2023-05-23T14:24:23;99513.97;;;24.68;34.18
59588;BME280;45412;54.472;18.464;2023-05-23T14:27:12;99509.48;;;24.60;34.18
59588;BME280;45412;54.472;18.464;2023-05-23T14:30:02;99510.60;;;24.46;34.12
59588;BME280;45412;54.472;18.464;2023-05-23T14:32:53;99509.66;;;24.40;34.45
59588;BME280;45412;54.472;18.464;2023-05-23T14:35:41;99510.91;;;24.45;34.45
59588;BME280;45412;54.472;18.464;2023-05-23T14:38:31;99510.95;;;24.54;34.33
59588;BME280;45412;54.472;18.464;2023-05-23T14:41:19;99513.09;;;24.56;34.31
59588;BME280;45412;54.472;18.464;2023-05-23T14:44:09;99515.73;;;24.48;34.50
59588;BME280;45412;54.472;18.464;2023-05-23T14:46:58;99515.31;;;24.40;34.39
59588;BME280;45412;54.472;18.464;2023-05-23T14:49:47;99520.58;;;24.25;34.46
59588;BME280;45412;54.472;18.464;2023-05-23T14:52:35;99521.48;;;24.07;34.42
59588;BME280;45412;54.472;18.464;2023-05-23T14:55:27;99521.29;;;23.93;34.58
59588;BME280;45412;54.472;18.464;2023-05-23T14:58:15;99523.56;;;23.74;34.77
59588;BME280;45412;54.472;18.464;2023-05-23T15:01:04;99519.98;;;23.52;34.96
59588;BME280;45412;54.472;18.464;2023-05-23T15:03:53;99519.39;;;23.36;35.50
59588;BME280;45412;54.472;18.464;2023-05-23T15:06:41;99515.95;;;23.20;35.69
59588;BME280;45412;54.472;18.464;2023-05-23T15:09:30;99519.83;;;23.06;36.16
59588;BME280;45412;54.472;18.464;2023-05-23T15:12:19;99516.41;;;22.88;36.25
59588;BME280;45412;54.472;18.464;2023-05-23T15:15:08;99513.70;;;22.77;36.78